sensor_id;sensor_type;location;lat;lon;timestamp;P1;durP1;ratioP1;P2;durP2;ratioP2
41480;SDS011;27217;51.220;5.308;2022-10-16T00:00:35;5.93;;;2.35;;
41480;SDS011;27217;51.220;5.308;2022-10-16T00:03:04;8.77;;;2.08;;
41480;SDS011;27217;51.220;5.308;2022-10-16T00:05:31;4.00;;;1.90;;
41480;SDS011;27217;51.220;5.308;2022-10-16T00:07:57;6.25;;;2.00;;
41480;SDS011;27217;51.220;5.308;2022-10-16T00:10:23;6.13;;;2.17;;
41480;SDS011;27217;51.220;5.308;2022-10-16T00:12:49;5.00;;;2.08;;
41480;SDS011;27217;51.220;5.308;2022-10-16T00:15:15;5.35;;;2.10;;
41480;SDS011;27217;51.220;5.308;2022-10-16T00:17:42;7.45;;;1.85;;
41480;SDS011;27217;51.220;5.308;2022-10-16T00:20:08;5.72;;;1.90;;
41480;SDS011;27217;51.220;5.308;2022-10-16T00:22:34;8.63;;;2.40;;
41480;SDS011;27217;51.220;5.308;2022-10-16T00:24:59;4.60;;;1.75;;
41480;SDS011;27217;51.220;5.308;2022-10-16T00:27:25;6.93;;;1.65;;
41480;SDS011;27217;51.220;5.308;2022-10-16T00:29:52;3.45;;;1.80;;
41480;SDS011;27217;51.220;5.308;2022-10-16T00:32:18;4.53;;;1.75;;
41480;SDS011;27217;51.220;5.308;2022-10-16T00:34:45;2.40;;;1.70;;
41480;SDS011;27217;51.220;5.308;2022-10-16T00:37:11;2.78;;;1.42;;
41480;SDS011;27217;51.220;5.308;2022-10-16T00:39:37;3.58;;;1.50;;
41480;SDS011;27217;51.220;5.308;2022-10-16T00:42:03;3.85;;;1.58;;
41480;SDS011;27217;51.220;5.308;2022-10-16T00:45:02;5.65;;;1.70;;
41480;SDS011;27217;51.220;5.308;2022-10-16T00:47:24;6.82;;;1.90;;
41480;SDS011;27217;51.220;5.308;2022-10-16T00:49:56;3.40;;;1.23;;
41480;SDS011;27217;51.220;5.308;2022-10-16T00:52:47;6.63;;;1.75;;
41480;SDS011;27217;51.220;5.308;2022-10-16T00:55:14;1.87;;;1.57;;
41480;SDS011;27217;51.220;5.308;2022-10-16T00:57:41;1.40;;;1.23;;
41480;SDS011;27217;51.220;5.308;2022-10-16T01:00:12;3.92;;;1.52;;
41480;SDS011;27217;51.220;5.308;2022-10-16T01:02:40;5.15;;;1.70;;
41480;SDS011;27217;51.220;5.308;2022-10-16T01:05:07;3.90;;;1.50;;
41480;SDS011;27217;51.220;5.308;2022-10-16T01:13:10;4.40;;;1.20;;
41480;SDS011;27217;51.220;5.308;2022-10-16T01:15:54;5.10;;;1.30;;
41480;SDS011;27217;51.220;5.308;2022-10-16T01:18:30;1.50;;;1.33;;
41480;SDS011;27217;51.220;5.308;2022-10-16T01:23:36;4.60;;;1.23;;
41480;SDS011;27217;51.220;5.308;2022-10-16T01:26:24;3.50;;;1.30;;
41480;SDS011;27217;51.220;5.308;2022-10-16T01:28:59;3.67;;;1.30;;
41480;SDS011;27217;51.220;5.308;2022-10-16T01:31:49;2.30;;;1.35;;
41480;SDS011;27217;51.220;5.308;2022-10-16T01:34:22;2.63;;;1.27;;
41480;SDS011;27217;51.220;5.308;2022-10-16T01:37:00;1.33;;;1.23;;
41480;SDS011;27217;51.220;5.308;2022-10-16T01:39:38;6.43;;;1.20;;
41480;SDS011;27217;51.220;5.308;2022-10-16T01:42:08;4.28;;;1.65;;
41480;SDS011;27217;51.220;5.308;2022-10-16T01:44:39;1.20;;;1.10;;
41480;SDS011;27217;51.220;5.308;2022-10-16T01:47:08;2.03;;;1.08;;
41480;SDS011;27217;51.220;5.308;2022-10-16T01:49:36;2.85;;;1.20;;
41480;SDS011;27217;51.220;5.308;2022-10-16T01:52:05;3.92;;;1.23;;
41480;SDS011;27217;51.220;5.308;2022-10-16T01:54:35;3.45;;;1.30;;
41480;SDS011;27217;51.220;5.308;2022-10-16T01:57:04;2.45;;;1.35;;
41480;SDS011;27217;51.220;5.308;2022-10-16T01:59:35;2.77;;;1.20;;
41480;SDS011;27217;51.220;5.308;2022-10-16T02:02:07;2.38;;;1.30;;
41480;SDS011;27217;51.220;5.308;2022-10-16T02:07:40;3.40;;;1.40;;
41480;SDS011;27217;51.220;5.308;2022-10-16T02:10:07;3.72;;;1.48;;
41480;SDS011;27217;51.220;5.308;2022-10-16T02:12:34;3.65;;;1.50;;
41480;SDS011;27217;51.220;5.308;2022-10-16T02:15:04;2.72;;;1.60;;
41480;SDS011;27217;51.220;5.308;2022-10-16T02:17:31;1.67;;;1.30;;
41480;SDS011;27217;51.220;5.308;2022-10-16T02:19:57;3.92;;;1.52;;
41480;SDS011;27217;51.220;5.308;2022-10-16T02:22:26;4.82;;;1.70;;
41480;SDS011;27217;51.220;5.308;2022-10-16T02:25:13;5.13;;;1.23;;
41480;SDS011;27217;51.220;5.308;2022-10-16T02:30:42;3.92;;;1.30;;
41480;SDS011;27217;51.220;5.308;2022-10-16T02:33:22;2.53;;;1.42;;
41480;SDS011;27217;51.220;5.308;2022-10-16T02:35:52;2.47;;;1.42;;
41480;SDS011;27217;51.220;5.308;2022-10-16T02:38:19;4.40;;;1.23;;
41480;SDS011;27217;51.220;5.308;2022-10-16T02:40:46;4.80;;;1.45;;
41480;SDS011;27217;51.220;5.308;2022-10-16T02:43:12;2.78;;;1.50;;
41480;SDS011;27217;51.220;5.308;2022-10-16T02:45:39;3.08;;;1.10;;
41480;SDS011;27217;51.220;5.308;2022-10-16T02:48:05;3.67;;;1.45;;
41480;SDS011;27217;51.220;5.308;2022-10-16T02:50:30;4.18;;;1.65;;
41480;SDS011;27217;51.220;5.308;2022-10-16T02:52:56;4.60;;;1.50;;
41480;SDS011;27217;51.220;5.308;2022-10-16T02:55:22;1.73;;;1.30;;
41480;SDS011;27217;51.220;5.308;2022-10-16T02:57:50;4.95;;;1.30;;
41480;SDS011;27217;51.220;5.308;2022-10-16T03:00:16;2.38;;;1.15;;
41480;SDS011;27217;51.220;5.308;2022-10-16T03:02:42;4.28;;;1.48;;
41480;SDS011;27217;51.220;5.308;2022-10-16T03:05:09;10.68;;;2.05;;
41480;SDS011;27217;51.220;5.308;2022-10-16T03:07:35;3.17;;;1.30;;
41480;SDS011;27217;51.220;5.308;2022-10-16T03:10:01;3.50;;;1.15;;
41480;SDS011;27217;51.220;5.308;2022-10-16T03:12:27;4.32;;;1.67;;
41480;SDS011;27217;51.220;5.308;2022-10-16T03:14:59;4.47;;;1.45;;
41480;SDS011;27217;51.220;5.308;2022-10-16T03:17:24;1.88;;;1.40;;
41480;SDS011;27217;51.220;5.308;2022-10-16T03:19:50;6.63;;;1.55;;
41480;SDS011;27217;51.220;5.308;2022-10-16T03:22:16;7.13;;;1.92;;
41480;SDS011;27217;51.220;5.308;2022-10-16T03:24:42;12.80;;;1.75;;
41480;SDS011;27217;51.220;5.308;2022-10-16T03:27:08;1.83;;;1.50;;
41480;SDS011;27217;51.220;5.308;2022-10-16T03:29:35;8.20;;;1.70;;
41480;SDS011;27217;51.220;5.308;2022-10-16T03:32:02;3.63;;;1.40;;
41480;SDS011;27217;51.220;5.308;2022-10-16T03:34:28;5.60;;;1.52;;
41480;SDS011;27217;51.220;5.308;2022-10-16T03:36:54;3.63;;;1.92;;
41480;SDS011;27217;51.220;5.308;2022-10-16T03:39:20;3.58;;;1.67;;
41480;SDS011;27217;51.220;5.308;2022-10-16T03:41:45;3.45;;;1.75;;
41480;SDS011;27217;51.220;5.308;2022-10-16T03:44:11;5.28;;;1.42;;
41480;SDS011;27217;51.220;5.308;2022-10-16T03:46:37;3.65;;;1.80;;
41480;SDS011;27217;51.220;5.308;2022-10-16T03:49:03;7.85;;;1.70;;
41480;SDS011;27217;51.220;5.308;2022-10-16T03:51:29;3.50;;;1.70;;
41480;SDS011;27217;51.220;5.308;2022-10-16T03:53:55;4.60;;;1.70;;
41480;SDS011;27217;51.220;5.308;2022-10-16T03:56:20;4.82;;;1.63;;
41480;SDS011;27217;51.220;5.308;2022-10-16T03:58:47;12.90;;;1.90;;
41480;SDS011;27217;51.220;5.308;2022-10-16T04:01:13;5.28;;;1.63;;
41480;SDS011;27217;51.220;5.308;2022-10-16T04:03:39;3.95;;;1.80;;
41480;SDS011;27217;51.220;5.308;2022-10-16T04:06:04;4.47;;;1.50;;
41480;SDS011;27217;51.220;5.308;2022-10-16T04:08:30;4.65;;;1.60;;
41480;SDS011;27217;51.220;5.308;2022-10-16T04:10:59;3.60;;;1.75;;
41480;SDS011;27217;51.220;5.308;2022-10-16T04:13:25;4.78;;;1.77;;
41480;SDS011;27217;51.220;5.308;2022-10-16T04:15:50;2.47;;;1.33;;
41480;SDS011;27217;51.220;5.308;2022-10-16T04:18:17;3.72;;;1.45;;
41480;SDS011;27217;51.220;5.308;2022-10-16T04:20:43;10.93;;;1.90;;
41480;SDS011;27217;51.220;5.308;2022-10-16T04:23:09;3.45;;;1.67;;
41480;SDS011;27217;51.220;5.308;2022-10-16T04:25:35;10.93;;;1.80;;
41480;SDS011;27217;51.220;5.308;2022-10-16T04:28:06;3.90;;;1.92;;
41480;SDS011;27217;51.220;5.308;2022-10-16T04:30:31;4.88;;;1.90;;
41480;SDS011;27217;51.220;5.308;2022-10-16T04:32:58;4.07;;;2.10;;
41480;SDS011;27217;51.220;5.308;2022-10-16T04:35:24;6.03;;;1.70;;
41480;SDS011;27217;51.220;5.308;2022-10-16T04:37:50;2.97;;;1.65;;
41480;SDS011;27217;51.220;5.308;2022-10-16T04:40:23;4.43;;;1.75;;
41480;SDS011;27217;51.220;5.308;2022-10-16T04:42:49;3.78;;;2.08;;
41480;SDS011;27217;51.220;5.308;2022-10-16T04:45:15;3.10;;;1.73;;
41480;SDS011;27217;51.220;5.308;2022-10-16T04:47:41;5.70;;;1.75;;
41480;SDS011;27217;51.220;5.308;2022-10-16T04:50:07;3.75;;;2.25;;
41480;SDS011;27217;51.220;5.308;2022-10-16T04:52:33;2.80;;;1.80;;
41480;SDS011;27217;51.220;5.308;2022-10-16T04:55:01;4.40;;;1.95;;
41480;SDS011;27217;51.220;5.308;2022-10-16T04:57:28;2.22;;;1.88;;
41480;SDS011;27217;51.220;5.308;2022-10-16T04:59:54;4.15;;;2.10;;
41480;SDS011;27217;51.220;5.308;2022-10-16T05:02:20;3.08;;;2.13;;
41480;SDS011;27217;51.220;5.308;2022-10-16T05:04:46;5.35;;;2.28;;
41480;SDS011;27217;51.220;5.308;2022-10-16T05:07:12;5.82;;;2.03;;
41480;SDS011;27217;51.220;5.308;2022-10-16T05:09:38;7.00;;;1.90;;
41480;SDS011;27217;51.220;5.308;2022-10-16T05:12:04;2.38;;;1.90;;
41480;SDS011;27217;51.220;5.308;2022-10-16T05:14:30;7.28;;;2.08;;
41480;SDS011;27217;51.220;5.308;2022-10-16T05:16:56;4.95;;;2.47;;
41480;SDS011;27217;51.220;5.308;2022-10-16T05:19:22;13.05;;;2.25;;
41480;SDS011;27217;51.220;5.308;2022-10-16T05:21:48;5.05;;;1.88;;
41480;SDS011;27217;51.220;5.308;2022-10-16T05:24:14;11.10;;;2.67;;
41480;SDS011;27217;51.220;5.308;2022-10-16T05:26:40;5.80;;;2.58;;
41480;SDS011;27217;51.220;5.308;2022-10-16T05:29:06;5.45;;;2.00;;
41480;SDS011;27217;51.220;5.308;2022-10-16T05:31:32;3.97;;;2.10;;
41480;SDS011;27217;51.220;5.308;2022-10-16T05:33:58;5.93;;;2.38;;
41480;SDS011;27217;51.220;5.308;2022-10-16T05:36:24;4.63;;;2.03;;
41480;SDS011;27217;51.220;5.308;2022-10-16T05:38:58;10.30;;;2.85;;
41480;SDS011;27217;51.220;5.308;2022-10-16T05:41:24;4.10;;;2.30;;
41480;SDS011;27217;51.220;5.308;2022-10-16T05:43:51;9.07;;;2.10;;
41480;SDS011;27217;51.220;5.308;2022-10-16T05:46:18;3.40;;;2.65;;
41480;SDS011;27217;51.220;5.308;2022-10-16T05:48:44;9.38;;;2.70;;
41480;SDS011;27217;51.220;5.308;2022-10-16T05:51:11;7.53;;;2.72;;
41480;SDS011;27217;51.220;5.308;2022-10-16T05:53:38;3.80;;;2.38;;
41480;SDS011;27217;51.220;5.308;2022-10-16T05:56:05;3.95;;;2.60;;
41480;SDS011;27217;51.220;5.308;2022-10-16T05:58:35;10.43;;;3.25;;
41480;SDS011;27217;51.220;5.308;2022-10-16T06:01:05;2.97;;;2.28;;
41480;SDS011;27217;51.220;5.308;2022-10-16T06:03:33;5.63;;;2.30;;
41480;SDS011;27217;51.220;5.308;2022-10-16T06:05:59;3.92;;;2.00;;
41480;SDS011;27217;51.220;5.308;2022-10-16T06:08:32;4.78;;;2.33;;
41480;SDS011;27217;51.220;5.308;2022-10-16T06:11:04;5.82;;;2.38;;
41480;SDS011;27217;51.220;5.308;2022-10-16T06:13:31;8.23;;;2.47;;
41480;SDS011;27217;51.220;5.308;2022-10-16T06:15:58;8.27;;;2.30;;
41480;SDS011;27217;51.220;5.308;2022-10-16T06:18:24;3.92;;;2.13;;
41480;SDS011;27217;51.220;5.308;2022-10-16T06:20:51;4.95;;;2.75;;
41480;SDS011;27217;51.220;5.308;2022-10-16T06:23:17;4.18;;;2.72;;
41480;SDS011;27217;51.220;5.308;2022-10-16T06:25:43;7.53;;;3.38;;
41480;SDS011;27217;51.220;5.308;2022-10-16T06:28:09;4.95;;;2.90;;
41480;SDS011;27217;51.220;5.308;2022-10-16T06:30:35;5.93;;;2.63;;
41480;SDS011;27217;51.220;5.308;2022-10-16T06:33:01;9.48;;;2.78;;
41480;SDS011;27217;51.220;5.308;2022-10-16T06:35:27;4.45;;;2.55;;
41480;SDS011;27217;51.220;5.308;2022-10-16T06:37:54;6.65;;;2.90;;
41480;SDS011;27217;51.220;5.308;2022-10-16T06:40:19;6.57;;;2.70;;
41480;SDS011;27217;51.220;5.308;2022-10-16T06:42:46;4.70;;;2.45;;
41480;SDS011;27217;51.220;5.308;2022-10-16T06:45:11;9.02;;;2.88;;
41480;SDS011;27217;51.220;5.308;2022-10-16T06:47:37;6.82;;;3.22;;
41480;SDS011;27217;51.220;5.308;2022-10-16T06:50:03;4.25;;;2.83;;
41480;SDS011;27217;51.220;5.308;2022-10-16T06:52:32;3.80;;;2.63;;
41480;SDS011;27217;51.220;5.308;2022-10-16T06:54:58;9.20;;;3.38;;
41480;SDS011;27217;51.220;5.308;2022-10-16T06:57:24;6.72;;;2.53;;
41480;SDS011;27217;51.220;5.308;2022-10-16T06:59:50;4.32;;;3.40;;
41480;SDS011;27217;51.220;5.308;2022-10-16T07:02:16;4.35;;;2.70;;
41480;SDS011;27217;51.220;5.308;2022-10-16T07:04:42;6.10;;;2.55;;
41480;SDS011;27217;51.220;5.308;2022-10-16T07:07:08;10.77;;;2.75;;
41480;SDS011;27217;51.220;5.308;2022-10-16T07:09:33;6.82;;;2.70;;
41480;SDS011;27217;51.220;5.308;2022-10-16T07:11:59;4.70;;;2.75;;
41480;SDS011;27217;51.220;5.308;2022-10-16T07:14:25;15.02;;;3.25;;
41480;SDS011;27217;51.220;5.308;2022-10-16T07:16:51;4.72;;;3.00;;
41480;SDS011;27217;51.220;5.308;2022-10-16T07:19:16;5.10;;;2.90;;
41480;SDS011;27217;51.220;5.308;2022-10-16T07:21:43;9.93;;;3.42;;
41480;SDS011;27217;51.220;5.308;2022-10-16T07:24:13;9.23;;;2.78;;
41480;SDS011;27217;51.220;5.308;2022-10-16T07:29:17;4.85;;;2.50;;
41480;SDS011;27217;51.220;5.308;2022-10-16T07:31:45;4.72;;;3.15;;
41480;SDS011;27217;51.220;5.308;2022-10-16T07:34:13;7.97;;;3.17;;
41480;SDS011;27217;51.220;5.308;2022-10-16T07:36:40;9.23;;;2.95;;
41480;SDS011;27217;51.220;5.308;2022-10-16T07:39:06;5.82;;;2.45;;
41480;SDS011;27217;51.220;5.308;2022-10-16T07:41:32;6.25;;;2.67;;
41480;SDS011;27217;51.220;5.308;2022-10-16T07:44:01;7.00;;;2.13;;
41480;SDS011;27217;51.220;5.308;2022-10-16T07:46:28;8.13;;;2.55;;
41480;SDS011;27217;51.220;5.308;2022-10-16T07:48:54;7.20;;;2.70;;
41480;SDS011;27217;51.220;5.308;2022-10-16T07:51:23;7.45;;;2.92;;
41480;SDS011;27217;51.220;5.308;2022-10-16T07:53:50;12.43;;;2.75;;
41480;SDS011;27217;51.220;5.308;2022-10-16T07:56:18;7.93;;;3.03;;
41480;SDS011;27217;51.220;5.308;2022-10-16T07:58:44;4.55;;;3.33;;
41480;SDS011;27217;51.220;5.308;2022-10-16T08:01:11;8.05;;;2.90;;
41480;SDS011;27217;51.220;5.308;2022-10-16T08:03:41;5.93;;;3.05;;
41480;SDS011;27217;51.220;5.308;2022-10-16T08:06:07;6.07;;;2.38;;
41480;SDS011;27217;51.220;5.308;2022-10-16T08:08:32;3.80;;;2.40;;
41480;SDS011;27217;51.220;5.308;2022-10-16T08:10:59;9.73;;;2.88;;
41480;SDS011;27217;51.220;5.308;2022-10-16T08:13:25;11.88;;;2.85;;
41480;SDS011;27217;51.220;5.308;2022-10-16T08:15:51;4.57;;;2.10;;
41480;SDS011;27217;51.220;5.308;2022-10-16T08:18:19;9.05;;;2.63;;
41480;SDS011;27217;51.220;5.308;2022-10-16T08:20:45;4.97;;;2.42;;
41480;SDS011;27217;51.220;5.308;2022-10-16T08:23:11;6.70;;;2.00;;
41480;SDS011;27217;51.220;5.308;2022-10-16T08:25:38;5.55;;;1.85;;
41480;SDS011;27217;51.220;5.308;2022-10-16T08:28:05;7.22;;;1.70;;
41480;SDS011;27217;51.220;5.308;2022-10-16T08:30:32;3.40;;;1.52;;
41480;SDS011;27217;51.220;5.308;2022-10-16T08:32:58;5.93;;;1.85;;
41480;SDS011;27217;51.220;5.308;2022-10-16T08:35:24;3.72;;;1.73;;
41480;SDS011;27217;51.220;5.308;2022-10-16T08:37:49;10.57;;;1.73;;
41480;SDS011;27217;51.220;5.308;2022-10-16T08:40:17;4.30;;;2.00;;
41480;SDS011;27217;51.220;5.308;2022-10-16T08:45:48;6.22;;;1.02;;
41480;SDS011;27217;51.220;5.308;2022-10-16T08:48:44;6.45;;;1.45;;
41480;SDS011;27217;51.220;5.308;2022-10-16T08:51:29;5.13;;;1.33;;
41480;SDS011;27217;51.220;5.308;2022-10-16T08:54:10;2.80;;;1.00;;
41480;SDS011;27217;51.220;5.308;2022-10-16T08:57:16;4.00;;;1.13;;
41480;SDS011;27217;51.220;5.308;2022-10-16T08:59:45;5.90;;;1.17;;
41480;SDS011;27217;51.220;5.308;2022-10-16T09:02:55;2.92;;;1.20;;
41480;SDS011;27217;51.220;5.308;2022-10-16T09:08:07;3.75;;;1.75;;
41480;SDS011;27217;51.220;5.308;2022-10-16T09:13:34;9.40;;;1.52;;
41480;SDS011;27217;51.220;5.308;2022-10-16T09:16:23;3.30;;;1.00;;
41480;SDS011;27217;51.220;5.308;2022-10-16T09:21:43;2.17;;;1.05;;
41480;SDS011;27217;51.220;5.308;2022-10-16T09:24:17;3.03;;;1.02;;
41480;SDS011;27217;51.220;5.308;2022-10-16T09:26:45;4.68;;;1.00;;
41480;SDS011;27217;51.220;5.308;2022-10-16T09:29:12;4.88;;;1.25;;
41480;SDS011;27217;51.220;5.308;2022-10-16T09:31:42;6.57;;;1.27;;
41480;SDS011;27217;51.220;5.308;2022-10-16T09:34:13;8.13;;;1.40;;
41480;SDS011;27217;51.220;5.308;2022-10-16T09:36:44;4.53;;;1.23;;
41480;SDS011;27217;51.220;5.308;2022-10-16T09:39:11;4.90;;;1.60;;
41480;SDS011;27217;51.220;5.308;2022-10-16T09:41:38;3.55;;;1.10;;
41480;SDS011;27217;51.220;5.308;2022-10-16T09:46:48;7.32;;;1.67;;
41480;SDS011;27217;51.220;5.308;2022-10-16T09:49:24;7.28;;;1.20;;
41480;SDS011;27217;51.220;5.308;2022-10-16T09:51:51;4.95;;;1.38;;
41480;SDS011;27217;51.220;5.308;2022-10-16T09:54:29;5.40;;;1.27;;
41480;SDS011;27217;51.220;5.308;2022-10-16T09:57:03;4.50;;;1.27;;
41480;SDS011;27217;51.220;5.308;2022-10-16T09:59:45;10.63;;;0.95;;
41480;SDS011;27217;51.220;5.308;2022-10-16T10:02:14;3.88;;;1.13;;
41480;SDS011;27217;51.220;5.308;2022-10-16T10:04:44;4.28;;;1.63;;
41480;SDS011;27217;51.220;5.308;2022-10-16T10:07:20;7.40;;;1.33;;
41480;SDS011;27217;51.220;5.308;2022-10-16T10:09:58;4.93;;;1.55;;
41480;SDS011;27217;51.220;5.308;2022-10-16T10:12:25;5.55;;;1.45;;
41480;SDS011;27217;51.220;5.308;2022-10-16T10:14:57;11.20;;;2.17;;
41480;SDS011;27217;51.220;5.308;2022-10-16T10:17:29;11.63;;;1.40;;
41480;SDS011;27217;51.220;5.308;2022-10-16T10:19:56;2.97;;;1.02;;
41480;SDS011;27217;51.220;5.308;2022-10-16T10:27:41;3.80;;;1.33;;
41480;SDS011;27217;51.220;5.308;2022-10-16T10:33:26;5.35;;;1.60;;
41480;SDS011;27217;51.220;5.308;2022-10-16T10:41:37;8.70;;;1.73;;
41480;SDS011;27217;51.220;5.308;2022-10-16T10:49:56;3.95;;;1.10;;
41480;SDS011;27217;51.220;5.308;2022-10-16T10:52:39;7.60;;;1.85;;
41480;SDS011;27217;51.220;5.308;2022-10-16T11:08:46;3.90;;;1.17;;
41480;SDS011;27217;51.220;5.308;2022-10-16T11:11:19;7.85;;;1.60;;
41480;SDS011;27217;51.220;5.308;2022-10-16T11:14:00;7.53;;;2.25;;
41480;SDS011;27217;51.220;5.308;2022-10-16T11:16:52;5.35;;;1.23;;
41480;SDS011;27217;51.220;5.308;2022-10-16T11:19:30;3.28;;;1.30;;
41480;SDS011;27217;51.220;5.308;2022-10-16T11:22:07;9.65;;;1.77;;
41480;SDS011;27217;51.220;5.308;2022-10-16T11:30:16;7.32;;;1.25;;
41480;SDS011;27217;51.220;5.308;2022-10-16T11:32:54;6.70;;;1.80;;
41480;SDS011;27217;51.220;5.308;2022-10-16T11:35:37;5.60;;;1.50;;
41480;SDS011;27217;51.220;5.308;2022-10-16T11:41:02;5.32;;;0.95;;
41480;SDS011;27217;51.220;5.308;2022-10-16T11:46:52;5.43;;;0.90;;
41480;SDS011;27217;51.220;5.308;2022-10-16T11:49:26;2.50;;;0.80;;
41480;SDS011;27217;51.220;5.308;2022-10-16T11:51:59;4.53;;;1.30;;
41480;SDS011;27217;51.220;5.308;2022-10-16T11:57:29;7.03;;;1.30;;
41480;SDS011;27217;51.220;5.308;2022-10-16T12:00:00;4.40;;;0.93;;
41480;SDS011;27217;51.220;5.308;2022-10-16T12:05:17;3.55;;;1.08;;
41480;SDS011;27217;51.220;5.308;2022-10-16T12:08:08;5.85;;;1.30;;
41480;SDS011;27217;51.220;5.308;2022-10-16T12:10:40;4.35;;;1.13;;
41480;SDS011;27217;51.220;5.308;2022-10-16T12:18:36;5.05;;;0.93;;
41480;SDS011;27217;51.220;5.308;2022-10-16T12:21:03;2.70;;;0.77;;
41480;SDS011;27217;51.220;5.308;2022-10-16T12:23:33;2.63;;;0.95;;
41480;SDS011;27217;51.220;5.308;2022-10-16T12:26:02;3.20;;;1.10;;
41480;SDS011;27217;51.220;5.308;2022-10-16T12:28:30;3.83;;;1.08;;
41480;SDS011;27217;51.220;5.308;2022-10-16T12:31:01;6.28;;;1.48;;
41480;SDS011;27217;51.220;5.308;2022-10-16T12:33:32;3.75;;;1.25;;
41480;SDS011;27217;51.220;5.308;2022-10-16T12:36:01;3.50;;;1.13;;
41480;SDS011;27217;51.220;5.308;2022-10-16T12:38:33;2.83;;;0.75;;
41480;SDS011;27217;51.220;5.308;2022-10-16T12:41:12;4.03;;;1.40;;
41480;SDS011;27217;51.220;5.308;2022-10-16T12:43:49;6.03;;;1.05;;
41480;SDS011;27217;51.220;5.308;2022-10-16T12:48:41;2.60;;;0.90;;
41480;SDS011;27217;51.220;5.308;2022-10-16T12:54:04;4.90;;;0.93;;
41480;SDS011;27217;51.220;5.308;2022-10-16T12:59:45;4.20;;;1.10;;
41480;SDS011;27217;51.220;5.308;2022-10-16T13:05:26;2.22;;;0.88;;
41480;SDS011;27217;51.220;5.308;2022-10-16T13:10:40;3.15;;;0.90;;
41480;SDS011;27217;51.220;5.308;2022-10-16T13:13:14;3.80;;;0.90;;
41480;SDS011;27217;51.220;5.308;2022-10-16T13:18:50;5.22;;;1.52;;
41480;SDS011;27217;51.220;5.308;2022-10-16T13:21:31;5.18;;;0.70;;
41480;SDS011;27217;51.220;5.308;2022-10-16T13:26:53;4.05;;;0.80;;
41480;SDS011;27217;51.220;5.308;2022-10-16T13:29:39;2.67;;;0.95;;
41480;SDS011;27217;51.220;5.308;2022-10-16T13:32:07;9.82;;;1.00;;
41480;SDS011;27217;51.220;5.308;2022-10-16T13:34:43;2.53;;;0.90;;
41480;SDS011;27217;51.220;5.308;2022-10-16T13:37:18;2.72;;;1.00;;
41480;SDS011;27217;51.220;5.308;2022-10-16T13:39:45;8.90;;;1.52;;
41480;SDS011;27217;51.220;5.308;2022-10-16T13:42:17;5.63;;;1.00;;
41480;SDS011;27217;51.220;5.308;2022-10-16T13:44:54;5.95;;;1.00;;
41480;SDS011;27217;51.220;5.308;2022-10-16T13:47:25;2.15;;;0.80;;
41480;SDS011;27217;51.220;5.308;2022-10-16T13:52:28;7.05;;;1.10;;
41480;SDS011;27217;51.220;5.308;2022-10-16T13:54:54;4.68;;;1.00;;
41480;SDS011;27217;51.220;5.308;2022-10-16T13:57:21;10.25;;;1.25;;
41480;SDS011;27217;51.220;5.308;2022-10-16T13:59:48;3.85;;;1.10;;
41480;SDS011;27217;51.220;5.308;2022-10-16T14:02:17;3.03;;;0.98;;
41480;SDS011;27217;51.220;5.308;2022-10-16T14:04:49;3.45;;;1.15;;
41480;SDS011;27217;51.220;5.308;2022-10-16T14:07:20;1.83;;;0.93;;
41480;SDS011;27217;51.220;5.308;2022-10-16T14:10:03;5.35;;;1.20;;
41480;SDS011;27217;51.220;5.308;2022-10-16T14:12:56;4.38;;;1.10;;
41480;SDS011;27217;51.220;5.308;2022-10-16T14:15:26;3.20;;;0.90;;
41480;SDS011;27217;51.220;5.308;2022-10-16T14:17:53;4.00;;;0.80;;
41480;SDS011;27217;51.220;5.308;2022-10-16T14:20:20;4.70;;;1.10;;
41480;SDS011;27217;51.220;5.308;2022-10-16T14:22:57;2.38;;;0.70;;
41480;SDS011;27217;51.220;5.308;2022-10-16T14:25:43;2.58;;;0.80;;
41480;SDS011;27217;51.220;5.308;2022-10-16T14:30:53;3.70;;;1.25;;
41480;SDS011;27217;51.220;5.308;2022-10-16T14:36:13;7.22;;;1.15;;
41480;SDS011;27217;51.220;5.308;2022-10-16T14:38:42;3.42;;;1.17;;
41480;SDS011;27217;51.220;5.308;2022-10-16T14:41:14;5.10;;;1.13;;
41480;SDS011;27217;51.220;5.308;2022-10-16T14:43:41;4.57;;;1.00;;
41480;SDS011;27217;51.220;5.308;2022-10-16T14:46:15;5.38;;;1.00;;
41480;SDS011;27217;51.220;5.308;2022-10-16T14:48:44;3.92;;;0.82;;
41480;SDS011;27217;51.220;5.308;2022-10-16T14:51:19;3.92;;;1.02;;
41480;SDS011;27217;51.220;5.308;2022-10-16T14:53:46;2.85;;;0.95;;
41480;SDS011;27217;51.220;5.308;2022-10-16T14:56:21;2.28;;;0.90;;
41480;SDS011;27217;51.220;5.308;2022-10-16T14:58:52;1.83;;;1.10;;
41480;SDS011;27217;51.220;5.308;2022-10-16T15:01:18;10.10;;;1.38;;
41480;SDS011;27217;51.220;5.308;2022-10-16T15:03:45;2.53;;;0.93;;
41480;SDS011;27217;51.220;5.308;2022-10-16T15:06:11;7.88;;;1.13;;
41480;SDS011;27217;51.220;5.308;2022-10-16T15:08:39;1.92;;;1.15;;
41480;SDS011;27217;51.220;5.308;2022-10-16T15:11:07;2.95;;;1.20;;
41480;SDS011;27217;51.220;5.308;2022-10-16T15:13:43;7.53;;;1.38;;
41480;SDS011;27217;51.220;5.308;2022-10-16T15:16:13;7.60;;;1.33;;
41480;SDS011;27217;51.220;5.308;2022-10-16T15:18:41;5.50;;;1.67;;
41480;SDS011;27217;51.220;5.308;2022-10-16T15:21:08;7.32;;;0.93;;
41480;SDS011;27217;51.220;5.308;2022-10-16T15:23:46;4.85;;;1.73;;
41480;SDS011;27217;51.220;5.308;2022-10-16T15:26:13;6.95;;;2.42;;
41480;SDS011;27217;51.220;5.308;2022-10-16T15:28:39;4.90;;;2.40;;
41480;SDS011;27217;51.220;5.308;2022-10-16T15:31:04;4.97;;;1.50;;
41480;SDS011;27217;51.220;5.308;2022-10-16T15:33:30;5.25;;;0.90;;
41480;SDS011;27217;51.220;5.308;2022-10-16T15:35:59;2.22;;;1.10;;
41480;SDS011;27217;51.220;5.308;2022-10-16T15:38:24;4.55;;;0.88;;
41480;SDS011;27217;51.220;5.308;2022-10-16T15:40:52;4.10;;;1.52;;
41480;SDS011;27217;51.220;5.308;2022-10-16T15:43:19;7.47;;;1.50;;
41480;SDS011;27217;51.220;5.308;2022-10-16T15:45:47;2.78;;;1.08;;
41480;SDS011;27217;51.220;5.308;2022-10-16T15:48:28;3.85;;;1.20;;
41480;SDS011;27217;51.220;5.308;2022-10-16T15:50:54;2.75;;;1.27;;
41480;SDS011;27217;51.220;5.308;2022-10-16T15:53:21;3.00;;;1.20;;
41480;SDS011;27217;51.220;5.308;2022-10-16T15:55:46;4.93;;;1.45;;
41480;SDS011;27217;51.220;5.308;2022-10-16T15:58:12;4.97;;;1.70;;
41480;SDS011;27217;51.220;5.308;2022-10-16T16:00:38;5.68;;;1.83;;
41480;SDS011;27217;51.220;5.308;2022-10-16T16:03:04;5.38;;;1.95;;
41480;SDS011;27217;51.220;5.308;2022-10-16T16:05:31;9.32;;;2.88;;
41480;SDS011;27217;51.220;5.308;2022-10-16T16:07:58;7.30;;;2.47;;
41480;SDS011;27217;51.220;5.308;2022-10-16T16:10:24;7.95;;;2.70;;
41480;SDS011;27217;51.220;5.308;2022-10-16T16:12:50;21.13;;;8.45;;
41480;SDS011;27217;51.220;5.308;2022-10-16T16:15:18;22.75;;;8.05;;
41480;SDS011;27217;51.220;5.308;2022-10-16T16:17:45;15.57;;;5.00;;
41480;SDS011;27217;51.220;5.308;2022-10-16T16:20:11;6.28;;;3.10;;
41480;SDS011;27217;51.220;5.308;2022-10-16T16:22:37;6.95;;;1.88;;
41480;SDS011;27217;51.220;5.308;2022-10-16T16:25:03;5.88;;;2.60;;
41480;SDS011;27217;51.220;5.308;2022-10-16T16:27:30;6.97;;;2.45;;
41480;SDS011;27217;51.220;5.308;2022-10-16T16:29:58;5.25;;;2.47;;
41480;SDS011;27217;51.220;5.308;2022-10-16T16:32:24;8.27;;;2.70;;
41480;SDS011;27217;51.220;5.308;2022-10-16T16:34:51;5.80;;;2.63;;
41480;SDS011;27217;51.220;5.308;2022-10-16T16:37:17;11.30;;;2.50;;
41480;SDS011;27217;51.220;5.308;2022-10-16T16:39:43;5.82;;;2.00;;
41480;SDS011;27217;51.220;5.308;2022-10-16T16:42:09;8.27;;;2.42;;
41480;SDS011;27217;51.220;5.308;2022-10-16T16:44:36;7.97;;;3.00;;
41480;SDS011;27217;51.220;5.308;2022-10-16T16:47:03;4.28;;;3.38;;
41480;SDS011;27217;51.220;5.308;2022-10-16T16:49:29;5.25;;;3.33;;
41480;SDS011;27217;51.220;5.308;2022-10-16T16:51:56;6.70;;;3.50;;
41480;SDS011;27217;51.220;5.308;2022-10-16T16:54:22;10.38;;;4.78;;
41480;SDS011;27217;51.220;5.308;2022-10-16T16:56:48;6.88;;;3.95;;